createdAt,value
2019-04-07T00:01:57.264Z,52.42
2019-04-07T00:04:25.518Z,52.75
2019-04-07T00:06:53.464Z,52.60
2019-04-07T00:09:21.332Z,52.56
2019-04-07T00:11:49.706Z,52.70
2019-04-07T00:14:18.064Z,53.12
2019-04-07T00:16:46.054Z,53.09
2019-04-07T00:19:13.926Z,52.93
2019-04-07T00:21:42.334Z,53.22
2019-04-07T00:24:10.261Z,53.38
2019-04-07T00:26:38.136Z,53.71
2019-04-07T00:29:06.108Z,53.79
2019-04-07T00:31:33.861Z,54.14
2019-04-07T00:34:01.829Z,54.18
2019-04-07T00:36:29.805Z,54.10
2019-04-07T00:38:57.765Z,54.14
2019-04-07T00:41:25.637Z,54.15
2019-04-07T00:43:53.409Z,54.79
2019-04-07T00:46:21.835Z,54.82
2019-04-07T00:48:49.845Z,55.05
2019-04-07T00:51:17.922Z,55.27
2019-04-07T00:53:46.389Z,54.87
2019-04-07T00:56:14.626Z,55.29
2019-04-07T00:58:42.646Z,55.28
2019-04-07T01:01:12.194Z,55.49
2019-04-07T01:03:40.322Z,55.28
2019-04-07T01:06:08.684Z,55.27
2019-04-07T01:08:37.229Z,55.28
2019-04-07T01:11:05.649Z,55.48
2019-04-07T01:13:33.935Z,55.67
2019-04-07T01:16:01.699Z,55.87
2019-04-07T01:18:32.673Z,56.40
2019-04-07T01:21:00.609Z,56.58
2019-04-07T01:23:28.373Z,56.63
2019-04-07T01:25:56.442Z,56.89
2019-04-07T01:28:24.413Z,56.90
2019-04-07T01:30:53.406Z,56.75
2019-04-07T01:33:21.772Z,57.29
2019-04-07T01:35:50.416Z,57.33
2019-04-07T01:38:18.537Z,57.87
2019-04-07T01:40:50.903Z,58.00
2019-04-07T01:43:26.629Z,58.26
2019-04-07T01:46:13.054Z,58.29
2019-04-07T01:48:55.266Z,58.49
2019-04-07T01:51:42.691Z,58.82
2019-04-07T01:54:28.358Z,58.52
2019-04-07T01:57:01.365Z,58.33
2019-04-07T01:59:34.401Z,58.40
2019-04-07T02:02:04.682Z,58.39
2019-04-07T02:04:37.495Z,58.47
2019-04-07T02:07:09.915Z,58.64
2019-04-07T02:09:56.513Z,58.41
2019-04-07T02:12:43.888Z,58.61
2019-04-07T02:15:13.963Z,58.74
2019-04-07T02:17:43.881Z,58.75
2019-04-07T02:20:57.595Z,58.71
2019-04-07T02:23:28.204Z,58.53
2019-04-07T02:26:04.107Z,58.41
2019-04-07T02:28:51.101Z,58.71
2019-04-07T02:31:40.068Z,58.74
2019-04-07T02:34:13.499Z,58.66
2019-04-07T02:36:49.936Z,58.57
2019-04-07T02:39:36.841Z,58.44
2019-04-07T02:42:06.970Z,58.68
2019-04-07T02:44:40.812Z,58.58
2019-04-07T02:47:28.005Z,58.64
2019-04-07T02:50:07.295Z,58.75
2019-04-07T02:52:38.934Z,58.64
2019-04-07T02:55:18.423Z,58.66
2019-04-07T02:57:56.931Z,58.65
2019-04-07T03:00:29.761Z,59.07
2019-04-07T03:03:03.412Z,59.19
2019-04-07T03:05:38.863Z,59.39
2019-04-07T03:08:27.019Z,59.52
2019-04-07T03:11:09.655Z,60.05
2019-04-07T03:13:55.199Z,59.90
2019-04-07T03:16:31.975Z,60.21
2019-04-07T03:19:04.960Z,60.06
2019-04-07T03:21:46.895Z,60.06
2019-04-07T03:24:26.547Z,60.26
2019-04-07T03:26:56.602Z,60.29
2019-04-07T03:29:26.931Z,60.52
2019-04-07T03:31:59.735Z,60.56
2019-04-07T03:34:31.367Z,60.33
2019-04-07T03:37:32.424Z,60.50
2019-04-07T03:39:31.897Z,60.60
2019-04-07T03:42:01.729Z,60.30
2019-04-07T03:44:34.422Z,59.97
2019-04-07T03:47:04.425Z,59.99
2019-04-07T03:49:35.140Z,59.92
2019-04-07T03:52:05.859Z,59.65
2019-04-07T03:54:53.008Z,59.69
2019-04-07T03:57:24.140Z,59.66
2019-04-07T03:59:54.376Z,59.51
2019-04-07T04:02:39.648Z,59.43
2019-04-07T04:05:10.570Z,59.67
2019-04-07T04:07:40.509Z,59.49
2019-04-07T04:10:10.621Z,59.38
2019-04-07T04:12:41.609Z,59.16
2019-04-07T04:15:11.996Z,59.01
2019-04-07T04:17:39.746Z,58.90
2019-04-07T04:20:08.367Z,58.65
2019-04-07T04:22:36.135Z,58.41
2019-04-07T04:25:05.605Z,58.51
2019-04-07T04:27:34.218Z,58.47
2019-04-07T04:30:05.146Z,58.29
2019-04-07T04:32:33.288Z,57.60
2019-04-07T04:35:01.414Z,57.92
2019-04-07T04:37:39.864Z,57.91
2019-04-07T04:39:59.818Z,57.57
2019-04-07T04:42:28.872Z,57.89
2019-04-07T04:44:56.713Z,57.43
2019-04-07T04:47:25.704Z,57.10
2019-04-07T04:49:53.775Z,57.14
2019-04-07T04:52:22.023Z,56.54
2019-04-07T04:54:50.545Z,56.61
2019-04-07T04:57:19.917Z,55.87
2019-04-07T04:59:48.513Z,55.10
2019-04-07T05:02:17.166Z,54.56
2019-04-07T05:04:45.868Z,54.61
2019-04-07T05:07:13.955Z,54.95
2019-04-07T05:09:48.784Z,55.14
2019-04-07T05:12:12.778Z,55.74
2019-04-07T05:14:41.259Z,55.83
2019-04-07T05:17:09.986Z,56.06
2019-04-07T05:19:37.788Z,55.89
2019-04-07T05:22:06.001Z,54.80
2019-04-07T05:24:35.067Z,55.16
2019-04-07T05:27:03.337Z,54.43
2019-04-07T05:29:31.205Z,54.43
2019-04-07T05:31:59.274Z,54.61
2019-04-07T05:34:27.895Z,55.10
2019-04-07T05:36:56.213Z,55.10
2019-04-07T05:39:24.299Z,54.84
2019-04-07T05:41:52.560Z,54.84
2019-04-07T05:44:21.086Z,54.19
2019-04-07T05:46:49.913Z,54.38
2019-04-07T05:49:19.097Z,54.95
2019-04-07T05:51:47.991Z,54.65
2019-04-07T05:54:19.010Z,53.47
2019-04-07T05:56:46.430Z,53.36
2019-04-07T05:59:14.789Z,53.82
2019-04-07T06:01:44.560Z,53.43
2019-04-07T06:04:16.862Z,53.14
2019-04-07T06:06:42.510Z,52.88
2019-04-07T06:09:11.288Z,52.64
2019-04-07T06:11:40.039Z,52.27
2019-04-07T06:14:08.286Z,51.63
2019-04-07T06:16:36.316Z,51.25
2019-04-07T06:19:07.858Z,51.05
2019-04-07T06:21:33.993Z,50.63
2019-04-07T06:24:02.559Z,49.87
2019-04-07T06:26:31.879Z,49.40
2019-04-07T06:28:59.873Z,48.94
2019-04-07T06:31:31.353Z,48.43
2019-04-07T06:33:57.983Z,48.16
2019-04-07T06:36:26.788Z,48.30
2019-04-07T06:38:55.278Z,48.38
2019-04-07T06:41:24.279Z,47.37
2019-04-07T06:43:52.832Z,47.56
2019-04-07T06:46:27.660Z,47.43
2019-04-07T06:49:13.998Z,46.28
2019-04-07T06:52:04.364Z,47.52
2019-04-07T06:54:46.033Z,46.52
2019-04-07T06:57:19.450Z,46.45
2019-04-07T07:00:07.075Z,46.59
2019-04-07T07:02:49.910Z,46.14
2019-04-07T07:05:36.945Z,46.37
2019-04-07T07:08:23.658Z,46.30
2019-04-07T07:11:09.775Z,46.01
2019-04-07T07:13:53.019Z,45.61
2019-04-07T07:16:42.393Z,45.81
2019-04-07T07:19:13.001Z,45.29
2019-04-07T07:21:59.682Z,44.44
2019-04-07T07:24:27.957Z,44.63
2019-04-07T07:26:57.946Z,44.01
2019-04-07T07:29:26.921Z,44.41
2019-04-07T07:31:59.790Z,44.12
2019-04-07T07:34:24.847Z,44.11
2019-04-07T07:36:55.106Z,43.17
2019-04-07T07:39:23.165Z,43.07
2019-04-07T07:41:52.187Z,43.37
2019-04-07T07:44:20.364Z,43.20
2019-04-07T07:46:50.407Z,42.73
2019-04-07T07:49:18.292Z,42.40
2019-04-07T07:51:48.532Z,42.74
2019-04-07T07:54:16.248Z,42.45
2019-04-07T07:56:48.613Z,42.81
2019-04-07T07:59:13.759Z,42.72
2019-04-07T08:01:46.194Z,41.93
2019-04-07T08:04:13.964Z,41.03
2019-04-07T08:06:42.376Z,40.88
2019-04-07T08:09:14.924Z,40.86
2019-04-07T08:11:40.447Z,40.74
2019-04-07T08:14:09.918Z,40.59
2019-04-07T08:16:39.068Z,40.36
2019-04-07T08:19:09.374Z,40.07
2019-04-07T08:21:36.977Z,40.11
2019-04-07T08:24:05.825Z,39.34
2019-04-07T08:26:33.876Z,39.01
2019-04-07T08:29:05.723Z,38.42
2019-04-07T08:31:31.673Z,38.85
2019-04-07T08:34:01.238Z,38.66
2019-04-07T08:36:30.215Z,38.40
2019-04-07T08:38:58.497Z,38.37
2019-04-07T08:41:26.747Z,37.96
2019-04-07T08:43:57.489Z,38.21
2019-04-07T08:46:26.961Z,38.14
2019-04-07T08:48:56.908Z,38.45
2019-04-07T08:51:27.440Z,38.25
2019-04-07T08:53:55.575Z,37.70
2019-04-07T08:56:25.752Z,37.61
2019-04-07T08:58:53.358Z,37.76
2019-04-07T09:01:22.056Z,37.61
2019-04-07T09:03:50.797Z,37.65
2019-04-07T09:06:19.567Z,37.36
2019-04-07T09:08:47.885Z,37.04
2019-04-07T09:11:20.037Z,37.43
2019-04-07T09:13:49.970Z,37.42
2019-04-07T09:16:30.155Z,37.40
2019-04-07T09:19:19.369Z,37.04
2019-04-07T09:21:55.869Z,36.83
2019-04-07T09:24:34.781Z,36.86
2019-04-07T09:27:04.798Z,37.00
2019-04-07T09:29:41.100Z,37.03
2019-04-07T09:32:11.903Z,36.23
2019-04-07T09:34:44.657Z,35.96
2019-04-07T09:37:17.381Z,35.70
2019-04-07T09:39:57.811Z,35.07
2019-04-07T09:42:37.971Z,35.71
2019-04-07T09:45:18.504Z,35.85
2019-04-07T09:47:51.420Z,35.10
2019-04-07T09:50:28.606Z,34.91
2019-04-07T09:53:01.791Z,34.97
2019-04-07T09:55:47.272Z,34.59
2019-04-07T09:58:35.828Z,34.61
2019-04-07T10:01:08.006Z,35.15
2019-04-07T10:03:54.290Z,35.25
2019-04-07T10:06:39.784Z,35.29
2019-04-07T10:09:12.753Z,35.56
2019-04-07T10:11:49.528Z,35.99
2019-04-07T10:14:19.617Z,35.64
2019-04-07T10:16:58.273Z,35.38
2019-04-07T10:19:33.907Z,35.64
2019-04-07T10:22:07.316Z,35.49
2019-04-07T10:24:45.959Z,35.61
2019-04-07T10:27:34.067Z,35.24
2019-04-07T10:30:06.788Z,35.75
2019-04-07T10:32:39.596Z,35.41
2019-04-07T10:35:09.829Z,35.59
2019-04-07T10:37:42.812Z,36.11
2019-04-07T10:40:25.527Z,36.22
2019-04-07T10:42:57.310Z,36.24
2019-04-07T10:45:47.100Z,36.36
2019-04-07T10:48:37.841Z,36.06
2019-04-07T10:51:18.421Z,35.81
2019-04-07T10:53:51.663Z,35.64
2019-04-07T10:56:28.851Z,35.47
2019-04-07T10:59:11.656Z,35.51
2019-04-07T11:01:48.029Z,35.43
2019-04-07T11:04:30.681Z,35.33
2019-04-07T11:07:04.231Z,35.31
2019-04-07T11:09:43.909Z,35.24
2019-04-07T11:12:35.742Z,35.59
2019-04-07T11:15:13.731Z,35.58
2019-04-07T11:18:04.111Z,35.14
2019-04-07T11:20:49.685Z,34.95
2019-04-07T11:23:40.312Z,35.55
2019-04-07T11:26:13.811Z,35.85
2019-04-07T11:29:03.571Z,35.29
2019-04-07T11:31:40.503Z,35.13
2019-04-07T11:34:19.977Z,35.18
2019-04-07T11:36:56.134Z,35.65
2019-04-07T11:39:38.458Z,35.57
2019-04-07T11:42:19.708Z,35.43
2019-04-07T11:44:53.103Z,34.95
2019-04-07T11:47:26.787Z,34.92
2019-04-07T11:50:03.846Z,34.97
2019-04-07T11:52:56.278Z,35.12
2019-04-07T11:55:46.491Z,35.21
2019-04-07T11:58:29.568Z,34.60
2019-04-07T12:00:59.266Z,34.65
2019-04-07T12:03:53.405Z,34.05
2019-04-07T12:06:25.492Z,34.58
2019-04-07T12:09:15.197Z,34.32
2019-04-07T12:12:04.781Z,34.20
2019-04-07T12:14:45.532Z,34.32
2019-04-07T12:17:39.578Z,34.14
2019-04-07T12:20:10.876Z,34.30
2019-04-07T12:23:00.406Z,34.95
2019-04-07T12:25:34.452Z,34.68
2019-04-07T12:28:19.092Z,34.52
2019-04-07T12:31:04.280Z,34.68
2019-04-07T12:33:43.914Z,34.34
2019-04-07T12:36:28.803Z,34.14
2019-04-07T12:39:01.843Z,34.54
2019-04-07T12:41:45.919Z,34.77
2019-04-07T12:44:20.100Z,34.38
2019-04-07T12:47:11.441Z,33.95
2019-04-07T12:49:57.270Z,33.82
2019-04-07T12:52:48.496Z,33.89
2019-04-07T12:55:40.457Z,34.17
2019-04-07T12:58:30.163Z,34.30
2019-04-07T13:01:16.251Z,34.21
2019-04-07T13:03:47.494Z,34.38
2019-04-07T13:06:37.592Z,34.19
2019-04-07T13:09:12.000Z,34.29
2019-04-07T13:11:49.453Z,34.52
2019-04-07T13:14:27.065Z,34.17
2019-04-07T13:17:13.763Z,34.07
2019-04-07T13:20:02.448Z,34.14
2019-04-07T13:22:53.107Z,34.36
2019-04-07T13:25:29.211Z,34.24
2019-04-07T13:28:05.312Z,34.12
2019-04-07T13:30:54.956Z,33.96
2019-04-07T13:33:29.550Z,33.99
2019-04-07T13:36:09.311Z,33.78
2019-04-07T13:38:52.740Z,33.87
2019-04-07T13:41:47.315Z,34.09
2019-04-07T13:44:38.837Z,34.14
2019-04-07T13:47:14.541Z,34.09
2019-04-07T13:49:58.003Z,34.14
2019-04-07T13:52:39.752Z,33.98
2019-04-07T13:55:14.062Z,34.01
2019-04-07T13:58:04.469Z,33.77
2019-04-07T14:00:38.090Z,33.76
2019-04-07T14:03:13.447Z,34.02
2019-04-07T14:05:46.568Z,34.13
2019-04-07T14:08:30.964Z,34.06
2019-04-07T14:11:15.900Z,33.91
2019-04-07T14:14:01.320Z,34.06
2019-04-07T14:16:35.426Z,33.88
2019-04-07T14:19:12.372Z,33.84
2019-04-07T14:21:46.212Z,33.84
2019-04-07T14:24:19.797Z,33.74
2019-04-07T14:26:54.198Z,33.95
2019-04-07T14:29:28.430Z,33.65
2019-04-07T14:32:03.120Z,33.72
2019-04-07T14:34:37.743Z,33.69
2019-04-07T14:37:27.867Z,33.59
2019-04-07T14:40:20.398Z,33.80
2019-04-07T14:43:09.743Z,33.94
2019-04-07T14:45:48.461Z,33.95
2019-04-07T14:48:24.662Z,34.06
2019-04-07T14:51:06.834Z,34.25
2019-04-07T14:53:49.557Z,34.35
2019-04-07T14:56:40.693Z,34.09
2019-04-07T14:59:14.815Z,34.27
2019-04-07T15:01:48.259Z,34.05
2019-04-07T15:04:21.470Z,33.93
2019-04-07T15:07:04.109Z,34.14
2019-04-07T15:09:36.031Z,34.16
2019-04-07T15:12:17.956Z,34.08
2019-04-07T15:14:43.776Z,34.33
2019-04-07T15:17:15.293Z,34.28
2019-04-07T15:19:47.399Z,34.37
2019-04-07T15:22:19.625Z,34.42
2019-04-07T15:24:51.597Z,34.35
2019-04-07T15:27:24.982Z,34.53
2019-04-07T15:29:56.671Z,34.54
2019-04-07T15:32:30.001Z,34.87
2019-04-07T15:35:02.338Z,34.72
2019-04-07T15:37:34.704Z,35.45
2019-04-07T15:40:08.268Z,35.01
2019-04-07T15:42:44.134Z,35.25
2019-04-07T15:45:13.735Z,35.55
2019-04-07T15:47:45.180Z,35.63
2019-04-07T15:50:16.937Z,35.83
2019-04-07T15:52:49.831Z,35.95
2019-04-07T15:55:26.366Z,35.86
2019-04-07T15:57:58.386Z,36.10
2019-04-07T16:00:32.385Z,36.04
2019-04-07T16:03:03.214Z,35.64
2019-04-07T16:05:42.239Z,35.88
2019-04-07T16:08:11.612Z,35.86
2019-04-07T16:10:45.197Z,35.87
2019-04-07T16:13:17.401Z,36.02
2019-04-07T16:15:52.828Z,36.62
2019-04-07T16:18:23.174Z,36.95
2019-04-07T16:20:55.026Z,36.80
2019-04-07T16:23:27.280Z,36.89
2019-04-07T16:26:00.581Z,37.62
2019-04-07T16:28:33.038Z,37.72
2019-04-07T16:31:06.516Z,37.67
2019-04-07T16:33:38.793Z,37.61
2019-04-07T16:36:12.827Z,37.26
2019-04-07T16:38:44.406Z,37.22
2019-04-07T16:41:16.736Z,37.09
2019-04-07T16:43:48.215Z,37.67
2019-04-07T16:46:21.342Z,37.49
2019-04-07T16:48:52.243Z,37.72
2019-04-07T16:51:27.897Z,37.81
2019-04-07T16:53:57.490Z,37.92
2019-04-07T16:56:29.456Z,37.43
2019-04-07T16:59:02.480Z,37.89
2019-04-07T17:01:34.750Z,38.61
2019-04-07T17:04:06.416Z,38.37
2019-04-07T17:06:39.058Z,38.48
2019-04-07T17:09:22.357Z,38.33
2019-04-07T17:11:53.548Z,38.04
2019-04-07T17:14:25.745Z,37.77
2019-04-07T17:16:57.989Z,37.74
2019-04-07T17:19:30.095Z,38.67
2019-04-07T17:22:02.958Z,39.29
2019-04-07T17:24:36.297Z,39.83
2019-04-07T17:27:11.391Z,40.20
2019-04-07T17:29:41.674Z,40.54
2019-04-07T17:32:13.385Z,40.90
2019-04-07T17:34:45.068Z,41.18
2019-04-07T17:37:17.401Z,41.57
2019-04-07T17:39:51.953Z,41.55
2019-04-07T17:42:27.279Z,41.29
2019-04-07T17:45:20.415Z,41.33
2019-04-07T17:47:51.742Z,41.64
2019-04-07T17:50:33.795Z,41.42
2019-04-07T17:53:17.441Z,42.04
2019-04-07T17:55:58.960Z,42.18
2019-04-07T17:58:48.099Z,42.39
2019-04-07T18:01:41.023Z,42.23
2019-04-07T18:04:18.839Z,42.42
2019-04-07T18:07:10.161Z,41.73
2019-04-07T18:10:00.619Z,41.27
2019-04-07T18:12:51.547Z,41.52
2019-04-07T18:15:24.751Z,41.48
2019-04-07T18:18:18.810Z,41.88
2019-04-07T18:20:54.065Z,41.73
2019-04-07T18:23:28.948Z,41.83
2019-04-07T18:26:08.075Z,41.57
2019-04-07T18:28:46.484Z,41.81
2019-04-07T18:31:26.361Z,42.26
2019-04-07T18:34:01.860Z,42.18
2019-04-07T18:36:47.516Z,42.09
2019-04-07T18:39:37.090Z,42.15
2019-04-07T18:42:17.440Z,41.64
2019-04-07T18:45:04.134Z,42.14
2019-04-07T18:47:42.769Z,42.39
2019-04-07T18:50:28.758Z,42.00
2019-04-07T18:53:18.909Z,42.17
2019-04-07T18:56:01.665Z,41.83
2019-04-07T18:58:34.963Z,41.75
2019-04-07T19:01:18.180Z,41.84
2019-04-07T19:04:10.066Z,42.15
2019-04-07T19:06:46.422Z,41.72
2019-04-07T19:09:27.566Z,41.96
2019-04-07T19:12:13.137Z,41.95
2019-04-07T19:14:53.533Z,41.86
2019-04-07T19:17:38.585Z,41.73
2019-04-07T19:20:12.736Z,42.21
2019-04-07T19:22:56.028Z,43.37
2019-04-07T19:25:47.761Z,43.07
2019-04-07T19:28:20.928Z,43.11
2019-04-07T19:31:10.795Z,43.99
2019-04-07T19:33:47.465Z,43.96
2019-04-07T19:36:21.387Z,44.18
2019-04-07T19:39:09.931Z,44.02
2019-04-07T19:41:49.373Z,44.38
2019-04-07T19:44:34.083Z,43.99
2019-04-07T19:47:01.566Z,44.27
2019-04-07T19:49:52.984Z,44.47
2019-04-07T19:52:42.990Z,44.61
2019-04-07T19:55:32.782Z,44.30
2019-04-07T19:58:22.455Z,44.53
2019-04-07T20:01:12.796Z,44.36
2019-04-07T20:03:52.297Z,44.54
2019-04-07T20:06:40.629Z,44.76
2019-04-07T20:09:30.210Z,44.59
2019-04-07T20:12:20.569Z,44.50
2019-04-07T20:15:13.580Z,45.19
2019-04-07T20:17:45.266Z,45.20
2019-04-07T20:20:23.728Z,45.38
2019-04-07T20:23:16.073Z,45.24
2019-04-07T20:26:01.608Z,45.50
2019-04-07T20:28:45.067Z,45.44
2019-04-07T20:31:25.607Z,45.49
2019-04-07T20:34:02.220Z,46.01
2019-04-07T20:36:51.655Z,46.10
2019-04-07T20:39:35.312Z,46.43
2019-04-07T20:42:08.762Z,46.57
2019-04-07T20:44:58.380Z,47.05
2019-04-07T20:47:40.345Z,47.52
2019-04-07T20:50:28.091Z,47.48
2019-04-07T20:53:12.739Z,47.98
2019-04-07T20:55:51.933Z,48.08
2019-04-07T20:58:49.756Z,48.47
2019-04-07T21:01:23.171Z,48.72
2019-04-07T21:04:02.492Z,48.52
2019-04-07T21:06:36.713Z,48.62
2019-04-07T21:09:26.315Z,48.58
2019-04-07T21:12:06.116Z,48.72
2019-04-07T21:14:55.052Z,48.03
2019-04-07T21:17:46.517Z,48.43
2019-04-07T21:20:22.321Z,48.73
2019-04-07T21:22:58.427Z,48.80
2019-04-07T21:25:31.891Z,49.20
2019-04-07T21:28:08.977Z,48.40
2019-04-07T21:30:43.758Z,48.33
2019-04-07T21:33:17.458Z,47.77
2019-04-07T21:35:57.183Z,47.87
2019-04-07T21:38:31.271Z,47.48
2019-04-07T21:41:19.955Z,46.93
2019-04-07T21:43:59.702Z,47.38
2019-04-07T21:46:51.789Z,47.05
2019-04-07T21:49:24.302Z,46.77
2019-04-07T21:51:57.781Z,47.03
2019-04-07T21:54:37.282Z,47.55
2019-04-07T21:57:19.298Z,47.72
2019-04-07T21:59:52.497Z,48.06
2019-04-07T22:02:45.489Z,47.98
2019-04-07T22:05:37.073Z,48.17
2019-04-07T22:08:15.530Z,48.18
2019-04-07T22:10:43.380Z,47.90
2019-04-07T22:13:15.487Z,47.76
2019-04-07T22:15:51.879Z,47.21
2019-04-07T22:18:20.192Z,47.46
2019-04-07T22:20:54.454Z,47.26
2019-04-07T22:23:30.697Z,46.83
2019-04-07T22:26:01.403Z,46.85
2019-04-07T22:28:33.345Z,45.84
2019-04-07T22:31:05.618Z,45.65
2019-04-07T22:33:37.299Z,45.52
2019-04-07T22:36:13.250Z,45.26
2019-04-07T22:38:43.216Z,45.26
2019-04-07T22:41:15.565Z,44.95
2019-04-07T22:43:49.543Z,45.01
2019-04-07T22:46:24.531Z,44.67
2019-04-07T22:48:56.974Z,44.61
2019-04-07T22:51:26.958Z,44.55
2019-04-07T22:53:59.247Z,44.70
2019-04-07T22:56:31.079Z,44.91
2019-04-07T22:59:03.638Z,44.65
2019-04-07T23:01:35.658Z,44.76
2019-04-07T23:04:07.175Z,44.18
2019-04-07T23:06:39.034Z,44.45
2019-04-07T23:09:10.692Z,44.27
2019-04-07T23:11:42.345Z,44.54
2019-04-07T23:14:14.337Z,43.98
2019-04-07T23:16:46.452Z,44.32
2019-04-07T23:19:18.536Z,44.40
2019-04-07T23:21:50.192Z,44.26
2019-04-07T23:24:21.268Z,44.30
2019-04-07T23:26:52.788Z,44.70
2019-04-07T23:29:24.550Z,44.80
2019-04-07T23:31:56.098Z,44.93
2019-04-07T23:34:27.747Z,45.44
2019-04-07T23:36:59.726Z,45.17
2019-04-07T23:39:31.267Z,45.51
2019-04-07T23:42:02.826Z,45.29
2019-04-07T23:44:35.196Z,45.63
2019-04-07T23:47:06.897Z,45.39
2019-04-07T23:49:38.583Z,45.22
2019-04-07T23:52:11.101Z,45.63
2019-04-07T23:54:42.728Z,45.80
2019-04-07T23:57:15.563Z,46.37
2019-04-07T23:59:47.204Z,46.69
